Pagrindinis puslapis
METAR-TAF:

METAR-TAF

Oro uostai :

Grant County Airport

Silver City, Naujoji Meksika, Jungtinės Amerikos Valstijos

platuma: 32-38N, ilguma: 108-09W, Aukštis: 1659 m

Dabartinis oras

Ataskaita buvo paskelbta 40 minutes, ne 22:35 UTC
Vėjas 14 kt iš Rytų su gūsio iki 19 kt
Temperatūra 26°C
Drėgmė 42%
Slėgis 1022 hPa
Matomumas: 16.1 km
Išsisklaidę debesys ne aukštis 8000 ft
Su prošvaistėmis ne aukštis 10000 ft
Perkūnija kaimynystėje

METAR: KSVC 242235Z AUTO 08014G19KT 10SM VCTS SCT080 BKN100 26/12 A3019 RMK AO2 LTG DSNT N T02620117

Laikas: 17:15 (23:15 UTC)


TAF: trūkstamas

Orai ataskaitas ir orų prognozės (METAR, TAF).

turimą stotys yra geltonos ir raudonos taškus žemėlapyje.

Perkelti pele per norėdami pamatyti stoties vardą.

Tada spustelėkite, norėdami matyti oro stebėjimo ir prognozės.

Norėdami pakeisti žemėlapį: spustelėkite ant žalios mygtukų su juodo kryžiaus žemyn,; žalią mygtuką su brūkšneliu, jei norite nutolinti; arba žalių rodyklių gretimoms žemėlapius.


METAR-TAF: